createdAt,value
2023-01-25T00:02:12.082Z,94.02
2023-01-25T00:04:39.468Z,93.82
2023-01-25T00:07:06.875Z,94.29
2023-01-25T00:09:34.248Z,93.37
2023-01-25T00:12:02.952Z,93.27
2023-01-25T00:14:30.457Z,93.40
2023-01-25T00:16:57.814Z,93.68
2023-01-25T00:19:25.183Z,93.67
2023-01-25T00:21:52.611Z,92.53
2023-01-25T00:24:22.928Z,92.38
2023-01-25T00:26:50.381Z,92.02
2023-01-25T00:29:19.330Z,91.43
2023-01-25T00:31:55.327Z,90.67
2023-01-25T00:34:46.036Z,90.30
2023-01-25T00:37:20.385Z,90.44
2023-01-25T00:39:47.793Z,89.48
2023-01-25T00:42:16.514Z,89.67
2023-01-25T00:44:45.206Z,89.67
2023-01-25T00:47:13.136Z,90.41
2023-01-25T00:49:42.868Z,90.67
2023-01-25T00:52:10.970Z,90.83
2023-01-25T00:54:38.379Z,91.10
2023-01-25T00:57:07.053Z,90.22
2023-01-25T00:59:35.048Z,90.31
2023-01-25T01:02:04.703Z,90.21
2023-01-25T01:04:32.307Z,90.01
2023-01-25T01:06:59.877Z,90.48
2023-01-25T01:09:27.453Z,89.61
2023-01-25T01:11:55.410Z,89.21
2023-01-25T01:14:23.249Z,88.43
2023-01-25T01:16:50.614Z,88.38
2023-01-25T01:19:19.482Z,87.93
2023-01-25T01:21:46.973Z,87.84
2023-01-25T01:24:14.427Z,88.47
2023-01-25T01:26:41.841Z,88.91
2023-01-25T01:29:09.361Z,89.68
2023-01-25T01:31:36.799Z,89.64
2023-01-25T01:34:04.191Z,89.30
2023-01-25T01:36:33.018Z,89.97
2023-01-25T01:39:00.700Z,90.03
2023-01-25T01:41:28.673Z,89.93
2023-01-25T01:43:55.948Z,89.98
2023-01-25T01:46:28.382Z,89.70
2023-01-25T01:48:58.893Z,89.60
2023-01-25T01:51:40.235Z,89.78
2023-01-25T01:54:12.614Z,89.47
2023-01-25T01:56:44.854Z,89.80
2023-01-25T01:59:13.020Z,90.00
2023-01-25T02:01:41.538Z,90.06
2023-01-25T02:04:09.728Z,90.48
2023-01-25T02:06:46.545Z,90.03
2023-01-25T02:09:16.904Z,89.53
2023-01-25T02:11:44.673Z,88.61
2023-01-25T02:14:12.212Z,89.14
2023-01-25T02:16:40.121Z,89.20
2023-01-25T02:19:11.678Z,88.48
2023-01-25T02:21:45.573Z,89.28
2023-01-25T02:24:18.410Z,89.12
2023-01-25T02:26:47.394Z,89.03
2023-01-25T02:29:15.403Z,89.22
2023-01-25T02:31:44.749Z,88.62
2023-01-25T02:34:12.363Z,88.81
2023-01-25T02:36:39.988Z,89.00
2023-01-25T02:39:10.971Z,89.29
2023-01-25T02:41:39.998Z,90.48
2023-01-25T02:44:12.359Z,89.63
2023-01-25T02:46:41.532Z,89.11
2023-01-25T02:49:10.367Z,89.09
2023-01-25T02:51:40.653Z,89.59
2023-01-25T02:54:09.921Z,89.41
2023-01-25T02:56:38.144Z,89.01
2023-01-25T02:59:05.745Z,88.72
2023-01-25T03:01:35.666Z,88.86
2023-01-25T03:04:03.052Z,88.29
2023-01-25T03:06:30.450Z,88.86
2023-01-25T03:08:57.914Z,88.34
2023-01-25T03:11:25.456Z,87.72
2023-01-25T03:13:53.063Z,87.66
2023-01-25T03:16:20.446Z,88.47
2023-01-25T03:18:49.490Z,88.51
2023-01-25T03:21:18.865Z,90.06
2023-01-25T03:23:47.925Z,90.72
2023-01-25T03:26:17.556Z,91.44
2023-01-25T03:28:45.220Z,91.23
2023-01-25T03:31:15.266Z,91.44
2023-01-25T03:33:43.616Z,91.39
2023-01-25T03:36:12.401Z,92.00
2023-01-25T03:38:39.795Z,91.83
2023-01-25T03:41:07.854Z,91.74
2023-01-25T03:43:35.150Z,91.02
2023-01-25T03:46:03.459Z,89.73
2023-01-25T03:48:31.635Z,89.84
2023-01-25T03:51:00.479Z,90.53
2023-01-25T03:53:30.224Z,90.81
2023-01-25T03:56:00.250Z,90.76
2023-01-25T03:58:27.816Z,91.13
2023-01-25T04:00:56.750Z,89.97
2023-01-25T04:03:25.092Z,89.37
2023-01-25T04:05:52.744Z,89.43
2023-01-25T04:08:20.523Z,89.27
2023-01-25T04:10:53.583Z,89.88
2023-01-25T04:13:21.617Z,89.45
2023-01-25T04:15:48.974Z,89.57
2023-01-25T04:18:16.968Z,89.71
2023-01-25T04:20:44.299Z,90.43
2023-01-25T04:23:12.068Z,90.67
2023-01-25T04:25:39.800Z,90.49
2023-01-25T04:28:08.617Z,89.94
2023-01-25T04:30:35.987Z,89.15
2023-01-25T04:33:04.985Z,89.39
2023-01-25T04:35:32.622Z,89.56
2023-01-25T04:38:00.792Z,90.41
2023-01-25T04:40:28.599Z,91.04
2023-01-25T04:42:55.994Z,91.24
2023-01-25T04:45:25.935Z,90.95
2023-01-25T04:47:57.772Z,90.80
2023-01-25T04:50:26.137Z,89.57
2023-01-25T04:52:53.949Z,88.64
2023-01-25T04:55:21.787Z,88.80
2023-01-25T04:57:50.327Z,88.89
2023-01-25T05:00:18.593Z,89.50
2023-01-25T05:02:47.781Z,89.49
2023-01-25T05:05:15.715Z,88.76
2023-01-25T05:07:43.187Z,89.32
2023-01-25T05:10:11.753Z,89.07
2023-01-25T05:12:39.181Z,88.80
2023-01-25T05:15:08.110Z,89.28
2023-01-25T05:17:35.723Z,89.24
2023-01-25T05:20:05.188Z,89.37
2023-01-25T05:22:32.614Z,89.59
2023-01-25T05:25:01.824Z,89.39
2023-01-25T05:27:28.312Z,89.37
2023-01-25T05:29:56.402Z,89.23
2023-01-25T05:32:24.420Z,89.04
2023-01-25T05:34:52.193Z,89.04
2023-01-25T05:37:22.607Z,89.37
2023-01-25T05:39:49.978Z,89.17
2023-01-25T05:42:19.441Z,89.21
2023-01-25T05:44:47.927Z,89.04
2023-01-25T05:47:18.280Z,89.06
2023-01-25T05:49:45.677Z,88.49
2023-01-25T05:52:15.126Z,88.94
2023-01-25T05:54:44.215Z,89.39
2023-01-25T05:57:11.632Z,89.21
2023-01-25T05:59:39.029Z,89.26
2023-01-25T06:02:06.568Z,89.12
2023-01-25T06:04:33.973Z,89.24
2023-01-25T06:07:01.338Z,89.38
2023-01-25T06:09:28.706Z,89.29
2023-01-25T06:11:57.420Z,89.41
2023-01-25T06:14:24.901Z,88.85
2023-01-25T06:16:52.335Z,88.77
2023-01-25T06:19:19.741Z,88.50
2023-01-25T06:21:47.136Z,88.61
2023-01-25T06:24:14.664Z,88.44
2023-01-25T06:26:42.102Z,88.57
2023-01-25T06:29:11.176Z,87.99
2023-01-25T06:31:38.796Z,88.66
2023-01-25T06:34:08.076Z,89.10
2023-01-25T06:36:35.980Z,89.49
2023-01-25T06:39:03.477Z,89.65
2023-01-25T06:41:30.832Z,90.60
2023-01-25T06:43:58.242Z,90.86
2023-01-25T06:46:27.163Z,90.23
2023-01-25T06:48:54.531Z,89.68
2023-01-25T06:51:21.902Z,89.75
2023-01-25T06:53:49.318Z,89.58
2023-01-25T06:56:18.851Z,89.68
2023-01-25T06:58:47.023Z,89.69
2023-01-25T07:01:16.317Z,89.51
2023-01-25T07:03:45.041Z,89.01
2023-01-25T07:06:12.615Z,89.05
2023-01-25T07:08:40.204Z,89.19
2023-01-25T07:11:13.536Z,88.38
2023-01-25T07:13:42.082Z,88.65
2023-01-25T07:16:13.302Z,88.43
2023-01-25T07:18:40.781Z,88.90
2023-01-25T07:21:12.104Z,88.80
2023-01-25T07:23:39.951Z,89.34
2023-01-25T07:26:07.798Z,88.63
2023-01-25T07:28:35.169Z,88.69
2023-01-25T07:31:07.040Z,88.17
2023-01-25T07:33:35.071Z,88.09
2023-01-25T07:36:02.770Z,88.75
2023-01-25T07:38:31.644Z,88.64
2023-01-25T07:40:59.063Z,88.42
2023-01-25T07:43:26.886Z,88.14
2023-01-25T07:45:54.730Z,88.13
2023-01-25T07:48:22.157Z,88.17
2023-01-25T07:50:54.339Z,87.65
2023-01-25T07:53:21.708Z,88.09
2023-01-25T07:55:50.448Z,89.99
2023-01-25T07:58:17.993Z,91.15
2023-01-25T08:00:45.382Z,90.73
2023-01-25T08:03:14.083Z,90.72
2023-01-25T08:05:45.359Z,90.85
2023-01-25T08:08:12.976Z,90.10
2023-01-25T08:10:40.504Z,89.06
2023-01-25T08:13:09.193Z,90.43
2023-01-25T08:15:36.812Z,90.04
2023-01-25T08:18:06.935Z,89.50
2023-01-25T08:20:34.352Z,89.58
2023-01-25T08:23:01.716Z,89.90
2023-01-25T08:25:29.130Z,89.63
2023-01-25T08:27:56.504Z,88.42
2023-01-25T08:30:25.241Z,88.99
2023-01-25T08:32:52.607Z,88.86
2023-01-25T08:35:20.018Z,88.96
2023-01-25T08:37:48.439Z,88.70
2023-01-25T08:40:15.931Z,89.96
2023-01-25T08:42:43.428Z,90.28
2023-01-25T08:45:11.744Z,91.40
2023-01-25T08:47:40.506Z,91.97
2023-01-25T08:50:09.664Z,90.65
2023-01-25T08:52:37.371Z,90.30
2023-01-25T08:55:05.376Z,91.24
2023-01-25T08:57:32.637Z,91.86
2023-01-25T09:00:00.044Z,91.57
2023-01-25T09:02:27.430Z,91.64
2023-01-25T09:04:56.119Z,91.54
2023-01-25T09:07:23.596Z,90.74
2023-01-25T09:09:51.137Z,90.87
2023-01-25T09:12:18.548Z,91.95
2023-01-25T09:14:45.943Z,92.72
2023-01-25T09:17:13.340Z,91.47
2023-01-25T09:19:42.364Z,90.66
2023-01-25T09:22:11.053Z,89.50
2023-01-25T09:24:38.490Z,89.18
2023-01-25T09:27:05.952Z,90.10
2023-01-25T09:29:33.340Z,90.53
2023-01-25T09:32:00.839Z,90.60
2023-01-25T09:34:28.327Z,88.96
2023-01-25T09:36:55.686Z,88.68
2023-01-25T09:39:24.876Z,91.57
2023-01-25T09:42:14.619Z,91.85
2023-01-25T09:44:59.546Z,90.72
2023-01-25T09:47:31.697Z,90.09
2023-01-25T09:50:20.028Z,90.11
2023-01-25T09:53:20.285Z,89.66
2023-01-25T09:55:54.130Z,89.21
2023-01-25T09:58:25.430Z,89.00
2023-01-25T10:01:00.155Z,89.80
2023-01-25T10:03:35.850Z,90.84
2023-01-25T10:06:04.048Z,91.21
2023-01-25T10:08:36.922Z,89.28
2023-01-25T10:11:15.034Z,89.18
2023-01-25T10:13:42.449Z,89.11
2023-01-25T10:16:25.659Z,91.40
2023-01-25T10:19:06.907Z,90.94
2023-01-25T10:21:39.332Z,90.88
2023-01-25T10:24:33.397Z,90.43
2023-01-25T10:27:17.521Z,89.60
2023-01-25T10:29:45.720Z,90.64
2023-01-25T10:32:19.930Z,91.16
2023-01-25T10:34:56.600Z,90.73
2023-01-25T10:37:27.743Z,90.29
2023-01-25T10:40:00.007Z,90.75
2023-01-25T10:42:32.704Z,90.19
2023-01-25T10:45:00.113Z,90.51
2023-01-25T10:47:30.152Z,90.48
2023-01-25T10:49:59.343Z,90.25
2023-01-25T10:52:28.353Z,89.14
2023-01-25T10:55:15.300Z,89.08
2023-01-25T10:57:50.856Z,88.18
2023-01-25T11:03:21.932Z,86.56
2023-01-25T11:05:55.266Z,86.63
2023-01-25T11:08:26.338Z,86.63
2023-01-25T11:10:54.867Z,86.45
2023-01-25T11:13:26.541Z,87.25
2023-01-25T11:16:15.109Z,87.12
2023-01-25T11:18:51.977Z,87.59
2023-01-25T11:21:23.166Z,88.18
2023-01-25T11:24:17.232Z,87.25
2023-01-25T11:26:45.197Z,87.02
2023-01-25T11:29:15.366Z,86.13
2023-01-25T11:31:46.127Z,86.50
2023-01-25T11:34:15.825Z,87.91
2023-01-25T11:36:58.391Z,88.49
2023-01-25T11:39:50.789Z,88.12
2023-01-25T11:42:28.985Z,88.52
2023-01-25T11:45:37.626Z,88.47
2023-01-25T11:48:25.095Z,88.28
2023-01-25T11:51:03.075Z,87.86
2023-01-25T11:53:46.787Z,88.31
2023-01-25T11:56:24.342Z,88.13
2023-01-25T11:59:07.630Z,88.74
2023-01-25T12:01:46.592Z,89.32
2023-01-25T12:04:47.892Z,88.04
2023-01-25T12:07:23.154Z,87.88
2023-01-25T12:10:05.177Z,87.42
2023-01-25T12:12:44.339Z,87.11
2023-01-25T12:15:32.884Z,85.89
2023-01-25T12:18:16.814Z,85.76
2023-01-25T12:21:04.306Z,86.57
2023-01-25T12:23:38.464Z,86.95
2023-01-25T12:26:17.780Z,86.81
2023-01-25T12:28:51.191Z,86.81
2023-01-25T12:31:23.149Z,86.45
2023-01-25T12:33:57.653Z,85.89
2023-01-25T12:36:29.593Z,86.15
2023-01-25T12:39:02.216Z,85.77
2023-01-25T12:41:39.823Z,84.66
2023-01-25T12:44:15.104Z,85.19
2023-01-25T12:46:51.106Z,84.85
2023-01-25T12:49:28.365Z,84.30
2023-01-25T12:51:57.484Z,85.25
2023-01-25T12:54:32.173Z,85.29
2023-01-25T12:57:10.260Z,85.01
2023-01-25T12:59:47.278Z,84.60
2023-01-25T13:02:32.080Z,84.55
2023-01-25T13:05:13.444Z,84.94
2023-01-25T13:07:46.137Z,86.67
2023-01-25T13:10:19.388Z,87.91
2023-01-25T13:12:54.952Z,86.59
2023-01-25T13:15:40.586Z,86.13
2023-01-25T13:18:40.322Z,86.89
2023-01-25T13:21:46.078Z,87.37
2023-01-25T13:24:19.218Z,87.43
2023-01-25T13:26:58.566Z,85.66
2023-01-25T13:29:47.041Z,83.72
2023-01-25T13:32:15.868Z,83.38
2023-01-25T13:34:58.868Z,83.54
2023-01-25T13:37:29.930Z,81.96
2023-01-25T13:40:10.099Z,82.38
2023-01-25T13:42:39.990Z,81.38
2023-01-25T13:45:18.478Z,81.60
2023-01-25T13:48:02.133Z,81.00
2023-01-25T13:50:34.113Z,80.48
2023-01-25T13:53:04.797Z,81.89
2023-01-25T13:55:40.094Z,82.81
2023-01-25T13:58:12.195Z,81.83
2023-01-25T14:00:49.087Z,81.99
2023-01-25T14:03:17.100Z,81.80
2023-01-25T14:05:49.873Z,82.84
2023-01-25T14:08:20.839Z,83.55
2023-01-25T14:10:49.741Z,83.37
2023-01-25T14:13:18.559Z,83.52
2023-01-25T14:15:57.402Z,84.55
2023-01-25T14:18:32.067Z,83.78
2023-01-25T14:21:15.788Z,83.65
2023-01-25T14:23:45.377Z,83.46
2023-01-25T14:26:18.950Z,82.21
2023-01-25T14:28:59.057Z,82.26
2023-01-25T14:31:35.173Z,81.76
2023-01-25T14:34:04.803Z,81.21
2023-01-25T14:36:35.967Z,81.64
2023-01-25T14:39:17.567Z,81.75
2023-01-25T14:41:59.778Z,81.92
2023-01-25T14:44:29.882Z,82.37
2023-01-25T14:47:23.725Z,82.87
2023-01-25T14:49:51.364Z,82.57
2023-01-25T14:52:21.591Z,82.95
2023-01-25T14:54:53.265Z,82.79
2023-01-25T14:57:33.338Z,81.42
2023-01-25T15:00:03.353Z,81.95
2023-01-25T15:02:38.775Z,81.57
2023-01-25T15:05:15.603Z,81.94
2023-01-25T15:07:46.003Z,83.57
2023-01-25T15:10:21.550Z,83.10
2023-01-25T15:13:13.523Z,84.06
2023-01-25T15:15:54.102Z,84.06
2023-01-25T15:18:46.584Z,84.77
2023-01-25T15:21:15.843Z,84.80
2023-01-25T15:23:44.852Z,84.07
2023-01-25T15:26:20.788Z,83.04
2023-01-25T15:28:48.864Z,83.98
2023-01-25T15:31:17.728Z,84.28
2023-01-25T15:33:45.288Z,83.53
2023-01-25T15:36:14.389Z,83.38
2023-01-25T15:38:41.852Z,84.40
2023-01-25T15:41:10.257Z,84.46
2023-01-25T15:43:39.034Z,84.55
2023-01-25T15:46:07.836Z,83.50
2023-01-25T15:48:38.660Z,83.78
2023-01-25T15:51:06.352Z,85.31
2023-01-25T15:53:33.830Z,85.41
2023-01-25T15:56:04.213Z,86.87
2023-01-25T15:58:35.145Z,86.31
2023-01-25T16:01:04.387Z,86.08
2023-01-25T16:03:32.527Z,85.64
2023-01-25T16:06:03.442Z,86.00
2023-01-25T16:08:31.443Z,86.07
2023-01-25T16:10:58.706Z,85.30
2023-01-25T16:13:26.057Z,85.59
2023-01-25T16:15:56.743Z,85.54
2023-01-25T16:18:25.478Z,85.66
2023-01-25T16:20:52.838Z,85.99
2023-01-25T16:23:20.230Z,85.53
2023-01-25T16:25:49.237Z,85.53
2023-01-25T16:28:17.153Z,85.39
2023-01-25T16:30:45.390Z,85.64
2023-01-25T16:33:12.931Z,85.67
2023-01-25T16:35:41.651Z,85.78
2023-01-25T16:38:11.759Z,84.86
2023-01-25T16:40:39.738Z,83.99
2023-01-25T16:43:07.114Z,84.75
2023-01-25T16:45:34.558Z,82.90
2023-01-25T16:48:02.219Z,82.64
2023-01-25T16:50:29.717Z,82.20
2023-01-25T16:52:59.994Z,81.58
2023-01-25T16:55:27.472Z,81.64
2023-01-25T16:57:54.954Z,80.81
2023-01-25T17:00:22.980Z,80.04
2023-01-25T17:02:59.165Z,80.51
2023-01-25T17:05:28.914Z,80.57
2023-01-25T17:07:57.870Z,80.07
2023-01-25T17:10:25.334Z,80.61
2023-01-25T17:12:52.758Z,82.43
2023-01-25T17:15:20.494Z,82.45
2023-01-25T17:17:47.928Z,82.27
2023-01-25T17:20:15.539Z,80.94
2023-01-25T17:22:44.301Z,80.78
2023-01-25T17:25:13.015Z,81.89
2023-01-25T17:27:40.418Z,83.08
2023-01-25T17:30:09.659Z,83.27
2023-01-25T17:32:37.515Z,84.50
2023-01-25T17:35:05.381Z,85.20
2023-01-25T17:37:32.760Z,84.21
2023-01-25T17:40:00.237Z,84.74
2023-01-25T17:42:28.907Z,85.64
2023-01-25T17:44:56.307Z,86.26
2023-01-25T17:47:23.667Z,86.89
2023-01-25T17:49:51.109Z,86.44
2023-01-25T17:52:18.490Z,86.73
2023-01-25T17:54:45.949Z,87.44
2023-01-25T17:57:13.332Z,87.45
2023-01-25T17:59:42.000Z,87.45
2023-01-25T18:02:11.819Z,86.37
2023-01-25T18:04:39.734Z,86.63
2023-01-25T18:07:07.106Z,86.47
2023-01-25T18:09:35.743Z,86.17
2023-01-25T18:12:03.152Z,86.40
2023-01-25T18:14:30.646Z,86.10
2023-01-25T18:16:59.413Z,86.06
2023-01-25T18:19:31.189Z,86.44
2023-01-25T18:21:58.985Z,86.97
2023-01-25T18:27:24.850Z,87.04
2023-01-25T18:30:00.325Z,86.98
2023-01-25T18:32:30.344Z,86.55
2023-01-25T18:34:58.117Z,86.50
2023-01-25T18:37:29.435Z,85.55
2023-01-25T18:39:57.507Z,84.20
2023-01-25T18:42:26.303Z,84.05
2023-01-25T18:44:53.944Z,83.37
2023-01-25T18:47:23.133Z,82.85
2023-01-25T18:49:53.364Z,82.90
2023-01-25T18:52:22.704Z,82.68
2023-01-25T18:54:50.200Z,83.13
2023-01-25T18:57:18.513Z,83.34
2023-01-25T18:59:46.317Z,84.86
2023-01-25T19:02:16.241Z,84.88
2023-01-25T19:04:44.127Z,85.15
2023-01-25T19:07:13.103Z,85.79
2023-01-25T19:09:43.461Z,85.71
2023-01-25T19:12:11.541Z,84.42
2023-01-25T19:14:38.863Z,84.33
2023-01-25T19:17:08.219Z,84.54
2023-01-25T19:19:35.761Z,85.75
2023-01-25T19:22:03.153Z,85.80
2023-01-25T19:24:32.025Z,85.79
2023-01-25T19:27:00.001Z,86.10
2023-01-25T19:29:27.539Z,86.22
2023-01-25T19:31:55.294Z,85.72
2023-01-25T19:34:22.864Z,86.08
2023-01-25T19:36:50.578Z,85.72
2023-01-25T19:39:19.034Z,84.64
2023-01-25T19:41:48.187Z,85.74
2023-01-25T19:44:16.078Z,85.59
2023-01-25T19:46:43.975Z,85.28
2023-01-25T19:49:13.237Z,84.93
2023-01-25T19:51:44.269Z,84.28
2023-01-25T19:54:15.658Z,84.58
2023-01-25T19:56:45.191Z,84.69
2023-01-25T19:59:15.754Z,85.47
2023-01-25T20:01:43.948Z,85.96
2023-01-25T20:04:12.711Z,86.47
2023-01-25T20:06:40.815Z,86.53
2023-01-25T20:09:08.582Z,86.66
2023-01-25T20:11:36.445Z,86.69
2023-01-25T20:14:06.331Z,86.65
2023-01-25T20:16:36.090Z,86.71
2023-01-25T20:19:04.471Z,86.14
2023-01-25T20:21:33.567Z,86.11
2023-01-25T20:24:06.552Z,84.88
2023-01-25T20:26:36.574Z,84.52
2023-01-25T20:29:07.806Z,83.44
2023-01-25T20:31:37.841Z,83.55
2023-01-25T20:34:07.683Z,84.28
2023-01-25T20:36:35.861Z,84.44
2023-01-25T20:39:04.403Z,84.68
2023-01-25T20:41:32.169Z,85.24
2023-01-25T20:44:01.919Z,85.93
2023-01-25T20:46:33.725Z,86.79
2023-01-25T20:49:03.003Z,87.73
2023-01-25T20:51:30.687Z,86.90
2023-01-25T20:53:58.646Z,85.49
2023-01-25T20:56:26.373Z,84.84
2023-01-25T20:58:54.985Z,84.67
2023-01-25T21:01:24.772Z,85.08
2023-01-25T21:03:54.355Z,84.38
2023-01-25T21:06:23.652Z,84.66
2023-01-25T21:08:51.370Z,86.74
2023-01-25T21:11:19.267Z,87.67
2023-01-25T21:13:48.339Z,88.59
2023-01-25T21:16:19.034Z,88.78
2023-01-25T21:18:48.342Z,88.67
2023-01-25T21:21:18.430Z,89.46
2023-01-25T21:23:49.268Z,89.72
2023-01-25T21:26:18.928Z,90.45
2023-01-25T21:28:47.346Z,90.83
2023-01-25T21:31:17.171Z,90.23
2023-01-25T21:33:45.211Z,89.85
2023-01-25T21:36:15.246Z,89.28
2023-01-25T21:38:43.995Z,90.09
2023-01-25T21:41:14.837Z,89.99
2023-01-25T21:44:00.144Z,89.72
2023-01-25T21:46:29.042Z,90.79
2023-01-25T21:49:15.933Z,91.62
2023-01-25T21:51:49.447Z,92.02
2023-01-25T21:54:17.805Z,92.18
2023-01-25T21:56:48.354Z,92.05
2023-01-25T21:59:16.546Z,91.70
2023-01-25T22:01:45.173Z,91.47
2023-01-25T22:04:13.683Z,91.39
2023-01-25T22:06:41.772Z,90.95
2023-01-25T22:09:09.783Z,90.16
2023-01-25T22:11:37.436Z,89.11
2023-01-25T22:14:06.208Z,88.71
2023-01-25T22:16:34.456Z,88.54
2023-01-25T22:19:01.876Z,88.03
2023-01-25T22:21:32.153Z,87.85
2023-01-25T22:24:00.061Z,87.91
2023-01-25T22:26:33.680Z,88.43
2023-01-25T22:29:01.500Z,87.57
2023-01-25T22:31:32.083Z,87.16
2023-01-25T22:34:00.287Z,87.39
2023-01-25T22:36:29.895Z,87.24
2023-01-25T22:38:57.407Z,87.50
2023-01-25T22:41:26.975Z,87.58
2023-01-25T22:43:54.777Z,86.93
2023-01-25T22:46:24.552Z,85.64
2023-01-25T22:48:53.424Z,86.27
2023-01-25T22:51:25.332Z,87.30
2023-01-25T22:53:53.321Z,88.20
2023-01-25T22:56:22.988Z,88.30
2023-01-25T22:58:51.081Z,88.08
2023-01-25T23:01:19.671Z,88.26
2023-01-25T23:03:48.364Z,88.13
2023-01-25T23:06:19.200Z,88.96
2023-01-25T23:08:47.238Z,89.43
2023-01-25T23:11:15.570Z,89.74
2023-01-25T23:14:04.419Z,90.17
2023-01-25T23:16:31.890Z,90.00
2023-01-25T23:18:58.836Z,90.44
2023-01-25T23:21:29.993Z,90.00
2023-01-25T23:24:00.602Z,90.35
2023-01-25T23:26:29.187Z,90.39
2023-01-25T23:28:58.561Z,90.10
2023-01-25T23:31:26.761Z,89.44
2023-01-25T23:33:56.763Z,89.79
2023-01-25T23:36:25.884Z,89.72
2023-01-25T23:38:55.411Z,88.79
2023-01-25T23:41:26.123Z,88.86
2023-01-25T23:43:54.997Z,88.42
2023-01-25T23:46:23.538Z,88.70
2023-01-25T23:48:51.535Z,87.75
2023-01-25T23:51:20.283Z,88.73
2023-01-25T23:53:48.437Z,89.07
2023-01-25T23:56:19.945Z,89.11
2023-01-25T23:58:48.802Z,89.75
